sensor_id;sensor_type;location;lat;lon;timestamp;pressure;altitude;pressure_sealevel;temperature;humidity
21821;BME280;11073;48.586;12.066;2022-08-11T00:01:12;96954.16;;;22.40;39.96
21821;BME280;11073;48.586;12.066;2022-08-11T00:03:45;96951.41;;;22.40;39.80
21821;BME280;11073;48.586;12.066;2022-08-11T00:06:23;96957.94;;;22.44;39.83
21821;BME280;11073;48.586;12.066;2022-08-11T00:08:54;96948.22;;;22.33;39.79
21821;BME280;11073;48.586;12.066;2022-08-11T00:11:32;96954.56;;;22.34;39.82
21821;BME280;11073;48.586;12.066;2022-08-11T00:14:03;96954.44;;;22.25;39.54
21821;BME280;11073;48.586;12.066;2022-08-11T00:16:32;96958.75;;;22.31;39.85
21821;BME280;11073;48.586;12.066;2022-08-11T00:19:01;96951.78;;;22.34;39.68
21821;BME280;11073;48.586;12.066;2022-08-11T00:21:39;96955.44;;;22.29;39.36
21821;BME280;11073;48.586;12.066;2022-08-11T00:24:33;96953.00;;;22.27;39.48
21821;BME280;11073;48.586;12.066;2022-08-11T00:27:20;96947.72;;;22.31;39.40
21821;BME280;11073;48.586;12.066;2022-08-11T00:29:59;96952.69;;;22.29;39.65
21821;BME280;11073;48.586;12.066;2022-08-11T00:32:28;96939.78;;;22.11;39.46
21821;BME280;11073;48.586;12.066;2022-08-11T00:34:59;96944.97;;;21.93;39.89
21821;BME280;11073;48.586;12.066;2022-08-11T00:37:53;96943.63;;;21.91;40.15
21821;BME280;11073;48.586;12.066;2022-08-11T00:40:27;96946.75;;;21.84;39.92
21821;BME280;11073;48.586;12.066;2022-08-11T00:43:07;96945.63;;;21.85;39.96
21821;BME280;11073;48.586;12.066;2022-08-11T00:46:07;96946.16;;;21.87;40.36
21821;BME280;11073;48.586;12.066;2022-08-11T00:48:46;96920.56;;;21.68;40.36
21821;BME280;11073;48.586;12.066;2022-08-11T00:51:25;96935.00;;;21.79;40.29
21821;BME280;11073;48.586;12.066;2022-08-11T00:54:51;96941.03;;;21.81;40.19
21821;BME280;11073;48.586;12.066;2022-08-11T00:57:52;96947.28;;;21.86;40.33
21821;BME280;11073;48.586;12.066;2022-08-11T01:00:33;96942.97;;;21.80;40.27
21821;BME280;11073;48.586;12.066;2022-08-11T01:03:18;96944.00;;;21.84;40.50
21821;BME280;11073;48.586;12.066;2022-08-11T01:06:05;96914.00;;;21.64;40.81
21821;BME280;11073;48.586;12.066;2022-08-11T01:09:11;96936.34;;;21.81;40.56
21821;BME280;11073;48.586;12.066;2022-08-11T01:12:16;96935.00;;;21.79;40.61
21821;BME280;11073;48.586;12.066;2022-08-11T01:18:23;96943.63;;;21.53;40.91
21821;BME280;11073;48.586;12.066;2022-08-11T01:21:12;96938.50;;;21.46;41.03
21821;BME280;11073;48.586;12.066;2022-08-11T01:27:20;96931.09;;;21.42;41.21
21821;BME280;11073;48.586;12.066;2022-08-11T01:30:16;96939.31;;;21.47;41.63
21821;BME280;11073;48.586;12.066;2022-08-11T01:39:14;96943.75;;;21.43;41.50
21821;BME280;11073;48.586;12.066;2022-08-11T01:45:20;96938.16;;;21.29;41.96
21821;BME280;11073;48.586;12.066;2022-08-11T01:48:04;96940.28;;;21.37;41.60
21821;BME280;11073;48.586;12.066;2022-08-11T01:50:56;96933.34;;;21.40;41.81
21821;BME280;11073;48.586;12.066;2022-08-11T01:53:38;96932.59;;;21.34;41.66
21821;BME280;11073;48.586;12.066;2022-08-11T01:56:25;96943.91;;;21.33;42.09
21821;BME280;11073;48.586;12.066;2022-08-11T01:59:01;96937.28;;;21.34;42.04
21821;BME280;11073;48.586;12.066;2022-08-11T02:04:32;96922.19;;;21.31;42.33
21821;BME280;11073;48.586;12.066;2022-08-11T02:07:11;96918.06;;;21.29;42.41
21821;BME280;11073;48.586;12.066;2022-08-11T02:10:01;96920.06;;;21.23;42.34
21821;BME280;11073;48.586;12.066;2022-08-11T02:13:10;96919.00;;;21.19;42.37
21821;BME280;11073;48.586;12.066;2022-08-11T02:15:44;96907.47;;;21.17;42.52
21821;BME280;11073;48.586;12.066;2022-08-11T02:18:20;96905.59;;;21.12;42.28
21821;BME280;11073;48.586;12.066;2022-08-11T02:21:15;96914.16;;;21.11;42.40
21821;BME280;11073;48.586;12.066;2022-08-11T02:24:10;96910.88;;;21.09;42.47
21821;BME280;11073;48.586;12.066;2022-08-11T02:26:47;96919.25;;;20.99;42.83
21821;BME280;11073;48.586;12.066;2022-08-11T02:29:21;96914.38;;;20.90;42.63
21821;BME280;11073;48.586;12.066;2022-08-11T02:32:03;96907.84;;;20.86;42.91
21821;BME280;11073;48.586;12.066;2022-08-11T02:35:11;96901.16;;;20.92;42.81
21821;BME280;11073;48.586;12.066;2022-08-11T02:37:49;96900.94;;;20.89;42.90
21821;BME280;11073;48.586;12.066;2022-08-11T02:40:29;96903.38;;;20.90;43.12
21821;BME280;11073;48.586;12.066;2022-08-11T02:43:16;96896.25;;;20.89;43.01
21821;BME280;11073;48.586;12.066;2022-08-11T02:46:00;96903.97;;;20.87;42.92
21821;BME280;11073;48.586;12.066;2022-08-11T02:48:39;96905.63;;;20.88;42.87
21821;BME280;11073;48.586;12.066;2022-08-11T02:51:38;96891.16;;;20.78;43.14
21821;BME280;11073;48.586;12.066;2022-08-11T02:54:15;96906.72;;;20.87;43.01
21821;BME280;11073;48.586;12.066;2022-08-11T02:56:50;96909.53;;;20.82;42.99
21821;BME280;11073;48.586;12.066;2022-08-11T02:59:32;96905.66;;;20.83;43.30
21821;BME280;11073;48.586;12.066;2022-08-11T03:02:30;96906.25;;;20.80;43.29
21821;BME280;11073;48.586;12.066;2022-08-11T03:05:05;96907.09;;;20.81;43.06
21821;BME280;11073;48.586;12.066;2022-08-11T03:07:50;96907.94;;;20.76;42.88
21821;BME280;11073;48.586;12.066;2022-08-11T03:10:28;96915.69;;;20.74;43.27
21821;BME280;11073;48.586;12.066;2022-08-11T03:13:07;96909.59;;;20.77;43.24
21821;BME280;11073;48.586;12.066;2022-08-11T03:16:17;96904.31;;;20.57;43.35
21821;BME280;11073;48.586;12.066;2022-08-11T03:19:13;96905.19;;;20.52;43.32
21821;BME280;11073;48.586;12.066;2022-08-11T03:21:46;96903.34;;;20.43;43.70
21821;BME280;11073;48.586;12.066;2022-08-11T03:24:39;96908.59;;;20.44;43.66
21821;BME280;11073;48.586;12.066;2022-08-11T03:27:26;96903.25;;;20.53;43.71
21821;BME280;11073;48.586;12.066;2022-08-11T03:30:04;96906.00;;;20.53;43.46
21821;BME280;11073;48.586;12.066;2022-08-11T03:32:41;96899.75;;;20.47;43.47
21821;BME280;11073;48.586;12.066;2022-08-11T03:35:39;96904.41;;;20.47;43.64
21821;BME280;11073;48.586;12.066;2022-08-11T03:38:11;96892.91;;;20.39;43.49
21821;BME280;11073;48.586;12.066;2022-08-11T03:40:51;96897.28;;;20.41;43.80
21821;BME280;11073;48.586;12.066;2022-08-11T03:44:13;96909.63;;;20.48;43.94
21821;BME280;11073;48.586;12.066;2022-08-11T03:47:02;96898.88;;;20.52;43.71
21821;BME280;11073;48.586;12.066;2022-08-11T03:49:47;96901.34;;;20.53;43.57
21821;BME280;11073;48.586;12.066;2022-08-11T03:52:26;96901.28;;;20.58;43.71
21821;BME280;11073;48.586;12.066;2022-08-11T03:55:09;96900.00;;;20.51;43.34
21821;BME280;11073;48.586;12.066;2022-08-11T04:01:36;96903.25;;;20.53;43.47
21821;BME280;11073;48.586;12.066;2022-08-11T04:04:21;96893.91;;;20.54;43.46
21821;BME280;11073;48.586;12.066;2022-08-11T04:13:34;96892.78;;;20.55;43.45
21821;BME280;11073;48.586;12.066;2022-08-11T04:16:15;96890.56;;;20.57;43.32
21821;BME280;11073;48.586;12.066;2022-08-11T04:19:29;96889.97;;;20.60;43.55
21821;BME280;11073;48.586;12.066;2022-08-11T04:25:51;96886.25;;;20.51;43.36
21821;BME280;11073;48.586;12.066;2022-08-11T04:28:59;96897.25;;;20.51;43.33
21821;BME280;11073;48.586;12.066;2022-08-11T04:31:37;96897.28;;;20.46;43.31
21821;BME280;11073;48.586;12.066;2022-08-11T04:34:42;96898.66;;;20.43;43.74
21821;BME280;11073;48.586;12.066;2022-08-11T04:37:28;96907.47;;;20.45;43.61
21821;BME280;11073;48.586;12.066;2022-08-11T04:40:23;96895.88;;;20.48;43.89
21821;BME280;11073;48.586;12.066;2022-08-11T04:47:03;96899.69;;;20.52;43.55
21821;BME280;11073;48.586;12.066;2022-08-11T04:49:54;96906.66;;;20.45;43.77
21821;BME280;11073;48.586;12.066;2022-08-11T04:53:12;96904.22;;;20.38;43.52
21821;BME280;11073;48.586;12.066;2022-08-11T04:56:10;96906.38;;;20.41;43.67
21821;BME280;11073;48.586;12.066;2022-08-11T04:59:26;96910.47;;;20.44;43.90
21821;BME280;11073;48.586;12.066;2022-08-11T05:02:59;96915.69;;;20.50;43.48
21821;BME280;11073;48.586;12.066;2022-08-11T05:05:45;96904.97;;;20.44;43.87
21821;BME280;11073;48.586;12.066;2022-08-11T05:11:50;96917.66;;;20.45;43.70
21821;BME280;11073;48.586;12.066;2022-08-11T05:14:37;96917.88;;;20.48;43.77
21821;BME280;11073;48.586;12.066;2022-08-11T05:17:33;96922.81;;;20.51;43.72
21821;BME280;11073;48.586;12.066;2022-08-11T05:20:24;96923.56;;;20.57;43.68
21821;BME280;11073;48.586;12.066;2022-08-11T05:23:11;96932.88;;;20.61;43.53
21821;BME280;11073;48.586;12.066;2022-08-11T05:25:59;96928.44;;;20.65;43.48
21821;BME280;11073;48.586;12.066;2022-08-11T05:29:24;96927.25;;;20.71;43.70
21821;BME280;11073;48.586;12.066;2022-08-11T05:32:14;96931.41;;;20.69;43.71
21821;BME280;11073;48.586;12.066;2022-08-11T05:35:04;96930.84;;;20.72;43.65
21821;BME280;11073;48.586;12.066;2022-08-11T05:37:40;96926.69;;;20.74;43.64
21821;BME280;11073;48.586;12.066;2022-08-11T05:40:24;96927.22;;;20.76;43.59
21821;BME280;11073;48.586;12.066;2022-08-11T05:43:20;96932.97;;;20.80;43.72
21821;BME280;11073;48.586;12.066;2022-08-11T05:46:37;96925.75;;;20.84;43.55
21821;BME280;11073;48.586;12.066;2022-08-11T05:49:29;96932.06;;;20.84;43.30
21821;BME280;11073;48.586;12.066;2022-08-11T05:52:16;96930.94;;;20.85;43.67
21821;BME280;11073;48.586;12.066;2022-08-11T05:55:09;96933.44;;;20.87;43.28
21821;BME280;11073;48.586;12.066;2022-08-11T05:57:56;96932.22;;;20.93;43.60
21821;BME280;11073;48.586;12.066;2022-08-11T06:00:27;96929.25;;;20.89;43.33
21821;BME280;11073;48.586;12.066;2022-08-11T06:03:00;96932.53;;;20.91;43.54
21821;BME280;11073;48.586;12.066;2022-08-11T06:05:35;96936.56;;;20.99;43.35
21821;BME280;11073;48.586;12.066;2022-08-11T06:08:11;96933.25;;;21.02;43.80
21821;BME280;11073;48.586;12.066;2022-08-11T06:10:43;96936.31;;;21.01;43.56
21821;BME280;11073;48.586;12.066;2022-08-11T06:13:15;96933.47;;;21.06;43.32
21821;BME280;11073;48.586;12.066;2022-08-11T06:15:46;96935.69;;;21.04;43.70
21821;BME280;11073;48.586;12.066;2022-08-11T06:18:17;96908.78;;;21.01;43.73
21821;BME280;11073;48.586;12.066;2022-08-11T06:20:48;96925.91;;;21.16;43.16
21821;BME280;11073;48.586;12.066;2022-08-11T06:23:18;96930.25;;;21.23;43.45
21821;BME280;11073;48.586;12.066;2022-08-11T06:25:51;96929.94;;;21.24;43.24
21821;BME280;11073;48.586;12.066;2022-08-11T06:28:30;96923.50;;;21.34;43.00
21821;BME280;11073;48.586;12.066;2022-08-11T06:31:01;96934.81;;;21.32;43.32
21821;BME280;11073;48.586;12.066;2022-08-11T06:33:36;96932.00;;;21.37;42.89
21821;BME280;11073;48.586;12.066;2022-08-11T06:36:15;96934.97;;;21.41;43.31
21821;BME280;11073;48.586;12.066;2022-08-11T06:38:59;96932.22;;;21.41;43.17
21821;BME280;11073;48.586;12.066;2022-08-11T06:41:37;96932.09;;;21.51;42.71
21821;BME280;11073;48.586;12.066;2022-08-11T06:44:14;96926.81;;;21.55;42.45
21821;BME280;11073;48.586;12.066;2022-08-11T06:46:47;96920.94;;;21.61;42.60
21821;BME280;11073;48.586;12.066;2022-08-11T06:49:20;96923.38;;;21.63;42.75
21821;BME280;11073;48.586;12.066;2022-08-11T06:52:10;96922.41;;;21.72;42.46
21821;BME280;11073;48.586;12.066;2022-08-11T06:55:05;96921.50;;;21.77;42.72
21821;BME280;11073;48.586;12.066;2022-08-11T06:57:55;96923.75;;;21.75;42.58
21821;BME280;11073;48.586;12.066;2022-08-11T07:00:42;96924.78;;;21.79;42.59
21821;BME280;11073;48.586;12.066;2022-08-11T07:03:16;96930.28;;;21.79;42.23
21821;BME280;11073;48.586;12.066;2022-08-11T07:05:51;96930.28;;;21.79;42.59
21821;BME280;11073;48.586;12.066;2022-08-11T07:12:02;96920.31;;;21.83;42.22
21821;BME280;11073;48.586;12.066;2022-08-11T07:15:00;96929.78;;;21.96;42.40
21821;BME280;11073;48.586;12.066;2022-08-11T07:17:50;96926.34;;;22.04;42.20
21821;BME280;11073;48.586;12.066;2022-08-11T07:20:40;96928.44;;;22.12;42.10
21821;BME280;11073;48.586;12.066;2022-08-11T07:23:33;96926.31;;;22.23;42.11
21821;BME280;11073;48.586;12.066;2022-08-11T07:26:23;96929.19;;;22.18;42.07
21821;BME280;11073;48.586;12.066;2022-08-11T07:29:12;96931.75;;;22.28;42.12
21821;BME280;11073;48.586;12.066;2022-08-11T07:31:45;96921.88;;;22.41;42.26
21821;BME280;11073;48.586;12.066;2022-08-11T07:34:20;96924.56;;;22.46;42.30
21821;BME280;11073;48.586;12.066;2022-08-11T07:36:52;96928.56;;;22.53;42.28
21821;BME280;11073;48.586;12.066;2022-08-11T07:39:24;96929.66;;;22.52;42.38
21821;BME280;11073;48.586;12.066;2022-08-11T07:41:56;96924.56;;;22.60;42.05
21821;BME280;11073;48.586;12.066;2022-08-11T07:44:27;96927.75;;;22.67;41.66
21821;BME280;11073;48.586;12.066;2022-08-11T07:47:01;96929.09;;;22.69;41.71
21821;BME280;11073;48.586;12.066;2022-08-11T07:49:59;96926.13;;;22.79;41.80
21821;BME280;11073;48.586;12.066;2022-08-11T07:52:46;96914.63;;;22.91;41.50
21821;BME280;11073;48.586;12.066;2022-08-11T07:55:21;96917.06;;;23.06;41.55
21821;BME280;11073;48.586;12.066;2022-08-11T07:58:13;96926.59;;;23.14;41.08
21821;BME280;11073;48.586;12.066;2022-08-11T08:01:20;96921.06;;;23.28;40.93
21821;BME280;11073;48.586;12.066;2022-08-11T08:04:08;96935.34;;;23.30;40.74
21821;BME280;11073;48.586;12.066;2022-08-11T08:06:56;96922.59;;;23.34;40.73
21821;BME280;11073;48.586;12.066;2022-08-11T08:09:44;96922.34;;;23.44;40.20
21821;BME280;11073;48.586;12.066;2022-08-11T08:12:32;96924.06;;;23.54;40.00
21821;BME280;11073;48.586;12.066;2022-08-11T08:15:20;96918.13;;;23.60;40.02
21821;BME280;11073;48.586;12.066;2022-08-11T08:18:08;96913.00;;;23.67;39.90
21821;BME280;11073;48.586;12.066;2022-08-11T08:20:54;96921.31;;;23.67;39.97
21821;BME280;11073;48.586;12.066;2022-08-11T08:23:39;96932.63;;;23.80;39.82
21821;BME280;11073;48.586;12.066;2022-08-11T08:26:11;96929.94;;;23.88;39.59
21821;BME280;11073;48.586;12.066;2022-08-11T08:28:58;96928.91;;;23.98;39.25
21821;BME280;11073;48.586;12.066;2022-08-11T08:31:43;96928.09;;;23.98;39.19
21821;BME280;11073;48.586;12.066;2022-08-11T08:34:14;96921.28;;;24.04;39.00
21821;BME280;11073;48.586;12.066;2022-08-11T08:36:45;96934.81;;;24.28;38.76
21821;BME280;11073;48.586;12.066;2022-08-11T08:39:18;96925.97;;;24.39;38.59
21821;BME280;11073;48.586;12.066;2022-08-11T08:41:51;96930.59;;;24.53;38.20
21821;BME280;11073;48.586;12.066;2022-08-11T08:44:23;96927.09;;;24.69;38.01
21821;BME280;11073;48.586;12.066;2022-08-11T08:47:10;96938.72;;;24.80;37.92
21821;BME280;11073;48.586;12.066;2022-08-11T08:49:44;96926.56;;;24.90;37.75
21821;BME280;11073;48.586;12.066;2022-08-11T08:52:18;96922.69;;;24.99;37.25
21821;BME280;11073;48.586;12.066;2022-08-11T08:55:04;96931.06;;;25.08;37.25
21821;BME280;11073;48.586;12.066;2022-08-11T08:57:35;96931.13;;;25.25;36.96
21821;BME280;11073;48.586;12.066;2022-08-11T09:00:08;96911.72;;;25.25;36.71
21821;BME280;11073;48.586;12.066;2022-08-11T09:02:43;96935.56;;;25.44;36.11
21821;BME280;11073;48.586;12.066;2022-08-11T09:05:16;96923.53;;;25.57;35.59
21821;BME280;11073;48.586;12.066;2022-08-11T09:07:46;96931.06;;;25.65;35.15
21821;BME280;11073;48.586;12.066;2022-08-11T09:10:18;96933.72;;;25.88;35.04
21821;BME280;11073;48.586;12.066;2022-08-11T09:12:49;96931.09;;;26.00;34.26
21821;BME280;11073;48.586;12.066;2022-08-11T09:15:20;96935.34;;;26.06;34.23
21821;BME280;11073;48.586;12.066;2022-08-11T09:17:53;96934.19;;;26.24;34.01
21821;BME280;11073;48.586;12.066;2022-08-11T09:20:24;96932.56;;;26.41;33.64
21821;BME280;11073;48.586;12.066;2022-08-11T09:22:57;96934.47;;;26.57;33.41
21821;BME280;11073;48.586;12.066;2022-08-11T09:26:04;96933.78;;;26.78;32.93
21821;BME280;11073;48.586;12.066;2022-08-11T09:28:58;96929.75;;;27.13;32.66
21821;BME280;11073;48.586;12.066;2022-08-11T09:31:30;96920.31;;;27.35;32.17
21821;BME280;11073;48.586;12.066;2022-08-11T09:34:08;96927.22;;;27.67;31.78
21821;BME280;11073;48.586;12.066;2022-08-11T09:36:37;96938.03;;;27.81;31.50
21821;BME280;11073;48.586;12.066;2022-08-11T09:39:25;96942.81;;;28.01;30.57
21821;BME280;11073;48.586;12.066;2022-08-11T09:42:14;96924.47;;;28.21;30.50
21821;BME280;11073;48.586;12.066;2022-08-11T09:44:51;96934.50;;;28.55;30.03
21821;BME280;11073;48.586;12.066;2022-08-11T09:47:23;96935.16;;;28.85;29.86
21821;BME280;11073;48.586;12.066;2022-08-11T09:49:57;96933.13;;;29.07;29.68
21821;BME280;11073;48.586;12.066;2022-08-11T09:52:31;96928.84;;;29.22;29.16
21821;BME280;11073;48.586;12.066;2022-08-11T09:55:03;96931.28;;;29.48;28.73
21821;BME280;11073;48.586;12.066;2022-08-11T09:57:38;96922.03;;;29.56;28.25
21821;BME280;11073;48.586;12.066;2022-08-11T10:00:28;96932.69;;;29.78;27.93
21821;BME280;11073;48.586;12.066;2022-08-11T10:02:59;96928.59;;;29.88;27.92
21821;BME280;11073;48.586;12.066;2022-08-11T10:05:33;96916.47;;;29.96;27.35
21821;BME280;11073;48.586;12.066;2022-08-11T10:08:22;96924.09;;;30.24;27.28
21821;BME280;11073;48.586;12.066;2022-08-11T10:10:55;96921.81;;;30.41;27.15
21821;BME280;11073;48.586;12.066;2022-08-11T10:13:28;96911.38;;;30.54;27.00
21821;BME280;11073;48.586;12.066;2022-08-11T10:16:23;96913.44;;;30.69;26.21
21821;BME280;11073;48.586;12.066;2022-08-11T10:18:54;96905.72;;;30.79;26.23
21821;BME280;11073;48.586;12.066;2022-08-11T10:21:27;96899.31;;;30.94;25.75
21821;BME280;11073;48.586;12.066;2022-08-11T10:23:58;96905.78;;;31.14;25.47
21821;BME280;11073;48.586;12.066;2022-08-11T10:26:47;96906.53;;;30.95;25.02
21821;BME280;11073;48.586;12.066;2022-08-11T10:29:29;96911.94;;;31.19;25.23
21821;BME280;11073;48.586;12.066;2022-08-11T10:32:20;96902.38;;;31.36;24.95
21821;BME280;11073;48.586;12.066;2022-08-11T10:35:28;96903.84;;;31.65;24.69
21821;BME280;11073;48.586;12.066;2022-08-11T10:37:58;96902.94;;;31.77;24.87
21821;BME280;11073;48.586;12.066;2022-08-11T10:40:37;96906.66;;;31.81;24.69
21821;BME280;11073;48.586;12.066;2022-08-11T10:43:08;96899.97;;;31.86;24.34
21821;BME280;11073;48.586;12.066;2022-08-11T10:45:59;96892.91;;;32.11;24.07
21821;BME280;11073;48.586;12.066;2022-08-11T10:48:57;96886.06;;;32.28;23.95
21821;BME280;11073;48.586;12.066;2022-08-11T10:51:28;96884.81;;;32.45;23.86
21821;BME280;11073;48.586;12.066;2022-08-11T10:54:19;96871.78;;;32.52;23.75
21821;BME280;11073;48.586;12.066;2022-08-11T10:57:06;96882.09;;;32.90;23.94
21821;BME280;11073;48.586;12.066;2022-08-11T10:59:55;96885.16;;;33.05;23.25
21821;BME280;11073;48.586;12.066;2022-08-11T11:02:24;96887.69;;;33.13;23.41
21821;BME280;11073;48.586;12.066;2022-08-11T11:05:01;96881.84;;;33.22;23.25
21821;BME280;11073;48.586;12.066;2022-08-11T11:07:37;96880.03;;;33.33;23.01
21821;BME280;11073;48.586;12.066;2022-08-11T11:10:11;96874.59;;;33.44;22.63
21821;BME280;11073;48.586;12.066;2022-08-11T11:12:43;96869.41;;;33.72;22.51
21821;BME280;11073;48.586;12.066;2022-08-11T11:15:31;96867.19;;;33.85;22.39
21821;BME280;11073;48.586;12.066;2022-08-11T11:18:21;96885.63;;;33.86;21.98
21821;BME280;11073;48.586;12.066;2022-08-11T11:20:53;96876.56;;;33.96;21.90
21821;BME280;11073;48.586;12.066;2022-08-11T11:23:27;96877.19;;;34.13;21.90
21821;BME280;11073;48.586;12.066;2022-08-11T11:26:26;96877.94;;;34.10;21.62
21821;BME280;11073;48.586;12.066;2022-08-11T11:32:08;96876.00;;;34.14;21.53
21821;BME280;11073;48.586;12.066;2022-08-11T11:34:50;96883.88;;;34.35;21.42
21821;BME280;11073;48.586;12.066;2022-08-11T11:37:28;96879.06;;;34.69;21.02
21821;BME280;11073;48.586;12.066;2022-08-11T11:40:07;96881.19;;;34.79;21.02
21821;BME280;11073;48.586;12.066;2022-08-11T11:42:39;96861.47;;;34.75;20.62
21821;BME280;11073;48.586;12.066;2022-08-11T11:45:10;96861.28;;;34.95;20.42
21821;BME280;11073;48.586;12.066;2022-08-11T11:47:52;96869.38;;;35.03;20.26
21821;BME280;11073;48.586;12.066;2022-08-11T11:50:23;96869.81;;;34.68;19.97
21821;BME280;11073;48.586;12.066;2022-08-11T11:52:59;96864.44;;;34.19;20.19
21821;BME280;11073;48.586;12.066;2022-08-11T11:55:31;96874.84;;;34.18;20.33
21821;BME280;11073;48.586;12.066;2022-08-11T11:58:01;96858.97;;;34.33;20.39
21821;BME280;11073;48.586;12.066;2022-08-11T12:00:48;96865.84;;;34.39;20.44
21821;BME280;11073;48.586;12.066;2022-08-11T12:03:36;96862.41;;;34.49;20.43
21821;BME280;11073;48.586;12.066;2022-08-11T12:06:07;96866.72;;;34.77;20.28
21821;BME280;11073;48.586;12.066;2022-08-11T12:08:39;96862.25;;;34.76;20.04
21821;BME280;11073;48.586;12.066;2022-08-11T12:11:11;96862.41;;;34.90;19.83
21821;BME280;11073;48.586;12.066;2022-08-11T12:14:01;96861.84;;;34.40;19.90
21821;BME280;11073;48.586;12.066;2022-08-11T12:16:40;96851.09;;;34.83;20.15
21821;BME280;11073;48.586;12.066;2022-08-11T12:19:11;96845.34;;;35.09;19.98
21821;BME280;11073;48.586;12.066;2022-08-11T12:21:41;96850.34;;;35.34;19.87
21821;BME280;11073;48.586;12.066;2022-08-11T12:24:27;96843.50;;;34.87;19.65
21821;BME280;11073;48.586;12.066;2022-08-11T12:27:16;96849.88;;;35.25;19.73
21821;BME280;11073;48.586;12.066;2022-08-11T12:29:54;96841.91;;;35.34;19.14
21821;BME280;11073;48.586;12.066;2022-08-11T12:32:26;96840.56;;;35.14;18.72
21821;BME280;11073;48.586;12.066;2022-08-11T12:34:57;96841.72;;;35.13;19.04
21821;BME280;11073;48.586;12.066;2022-08-11T12:37:29;96842.59;;;35.75;19.31
21821;BME280;11073;48.586;12.066;2022-08-11T12:40:02;96840.72;;;35.97;19.11
21821;BME280;11073;48.586;12.066;2022-08-11T12:43:13;96846.78;;;36.06;19.17
21821;BME280;11073;48.586;12.066;2022-08-11T12:46:08;96842.34;;;35.98;19.12
21821;BME280;11073;48.586;12.066;2022-08-11T12:48:43;96844.81;;;36.14;18.80
21821;BME280;11073;48.586;12.066;2022-08-11T12:51:34;96827.66;;;36.48;18.72
21821;BME280;11073;48.586;12.066;2022-08-11T12:54:47;96834.59;;;37.04;18.34
21821;BME280;11073;48.586;12.066;2022-08-11T12:57:25;96830.56;;;37.44;18.21
21821;BME280;11073;48.586;12.066;2022-08-11T13:00:16;96830.91;;;37.89;17.53
21821;BME280;11073;48.586;12.066;2022-08-11T13:03:05;96835.84;;;37.38;17.82
21821;BME280;11073;48.586;12.066;2022-08-11T13:05:54;96830.19;;;37.03;17.75
21821;BME280;11073;48.586;12.066;2022-08-11T13:08:26;96825.34;;;37.10;17.76
21821;BME280;11073;48.586;12.066;2022-08-11T13:10:57;96835.81;;;37.17;17.85
21821;BME280;11073;48.586;12.066;2022-08-11T13:13:47;96814.44;;;37.26;17.81
21821;BME280;11073;48.586;12.066;2022-08-11T13:16:27;96812.44;;;37.23;17.83
21821;BME280;11073;48.586;12.066;2022-08-11T13:18:57;96815.66;;;37.25;17.60
21821;BME280;11073;48.586;12.066;2022-08-11T13:21:28;96813.25;;;37.31;17.00
21821;BME280;11073;48.586;12.066;2022-08-11T13:23:57;96808.41;;;36.96;17.24
21821;BME280;11073;48.586;12.066;2022-08-11T13:26:31;96806.38;;;37.07;17.34
21821;BME280;11073;48.586;12.066;2022-08-11T13:29:17;96810.81;;;36.80;17.40
21821;BME280;11073;48.586;12.066;2022-08-11T13:31:49;96810.03;;;36.90;17.61
21821;BME280;11073;48.586;12.066;2022-08-11T13:34:19;96807.63;;;36.95;17.61
21821;BME280;11073;48.586;12.066;2022-08-11T13:36:49;96801.97;;;37.06;17.50
21821;BME280;11073;48.586;12.066;2022-08-11T13:39:20;96799.50;;;36.69;17.42
21821;BME280;11073;48.586;12.066;2022-08-11T13:41:52;96799.53;;;37.05;17.91
21821;BME280;11073;48.586;12.066;2022-08-11T13:44:25;96793.06;;;37.36;17.81
21821;BME280;11073;48.586;12.066;2022-08-11T13:46:59;96792.69;;;37.02;17.23
21821;BME280;11073;48.586;12.066;2022-08-11T13:49:29;96791.88;;;36.98;17.41
21821;BME280;11073;48.586;12.066;2022-08-11T13:51:59;96787.03;;;36.84;17.43
21821;BME280;11073;48.586;12.066;2022-08-11T13:54:31;96785.00;;;36.60;17.52
21821;BME280;11073;48.586;12.066;2022-08-11T13:57:04;96774.91;;;35.54;17.30
21821;BME280;11073;48.586;12.066;2022-08-11T13:59:54;96774.81;;;34.88;17.86
21821;BME280;11073;48.586;12.066;2022-08-11T14:02:43;96780.69;;;34.69;18.30
21821;BME280;11073;48.586;12.066;2022-08-11T14:05:14;96777.16;;;34.79;18.31
21821;BME280;11073;48.586;12.066;2022-08-11T14:07:48;96777.25;;;34.90;18.31
21821;BME280;11073;48.586;12.066;2022-08-11T14:10:20;96783.34;;;34.92;18.33
21821;BME280;11073;48.586;12.066;2022-08-11T14:12:54;96775.31;;;34.97;18.01
21821;BME280;11073;48.586;12.066;2022-08-11T14:15:44;96771.81;;;34.63;18.09
21821;BME280;11073;48.586;12.066;2022-08-11T14:18:19;96766.63;;;34.28;17.92
21821;BME280;11073;48.586;12.066;2022-08-11T14:20:51;96760.22;;;33.90;18.10
21821;BME280;11073;48.586;12.066;2022-08-11T14:23:41;96764.41;;;33.77;18.21
21821;BME280;11073;48.586;12.066;2022-08-11T14:26:14;96756.63;;;33.63;18.50
21821;BME280;11073;48.586;12.066;2022-08-11T14:28:57;96758.34;;;33.75;18.75
21821;BME280;11073;48.586;12.066;2022-08-11T14:31:29;96753.41;;;33.61;18.69
21821;BME280;11073;48.586;12.066;2022-08-11T14:34:03;96761.81;;;33.61;18.61
21821;BME280;11073;48.586;12.066;2022-08-11T14:36:34;96754.53;;;33.57;18.61
21821;BME280;11073;48.586;12.066;2022-08-11T14:39:06;96757.09;;;33.69;18.82
21821;BME280;11073;48.586;12.066;2022-08-11T14:41:39;96755.47;;;33.68;18.73
21821;BME280;11073;48.586;12.066;2022-08-11T14:44:44;96760.25;;;33.64;18.96
21821;BME280;11073;48.586;12.066;2022-08-11T14:47:33;96763.47;;;33.66;18.70
21821;BME280;11073;48.586;12.066;2022-08-11T14:50:05;96755.56;;;33.75;19.19
21821;BME280;11073;48.586;12.066;2022-08-11T14:52:43;96755.00;;;33.92;19.06
21821;BME280;11073;48.586;12.066;2022-08-11T14:55:13;96755.72;;;33.89;19.33